sensor_id;sensor_type;location;lat;lon;timestamp;pressure;altitude;pressure_sealevel;temperature;humidity
74790;BME280;63318;52.406;13.416;2023-04-08T00:00:50;101682.42;;;5.40;82.50
74790;BME280;63318;52.406;13.416;2023-04-08T00:03:18;101683.77;;;5.41;82.60
74790;BME280;63318;52.406;13.416;2023-04-08T00:05:47;101679.74;;;5.41;82.60
74790;BME280;63318;52.406;13.416;2023-04-08T00:08:16;101680.77;;;5.41;82.44
74790;BME280;63318;52.406;13.416;2023-04-08T00:10:45;101679.02;;;5.42;82.78
74790;BME280;63318;52.406;13.416;2023-04-08T00:13:14;101678.98;;;5.42;82.72
74790;BME280;63318;52.406;13.416;2023-04-08T00:15:42;101684.45;;;5.43;82.64
74790;BME280;63318;52.406;13.416;2023-04-08T00:18:13;101685.86;;;5.43;82.71
74790;BME280;63318;52.406;13.416;2023-04-08T00:20:41;101680.68;;;5.43;82.55
74790;BME280;63318;52.406;13.416;2023-04-08T00:23:10;101682.16;;;5.43;82.35
74790;BME280;63318;52.406;13.416;2023-04-08T00:25:39;101684.96;;;5.43;82.61
74790;BME280;63318;52.406;13.416;2023-04-08T00:28:07;101684.96;;;5.43;82.60
74790;BME280;63318;52.406;13.416;2023-04-08T00:30:37;101683.39;;;5.42;82.32
74790;BME280;63318;52.406;13.416;2023-04-08T00:33:06;101682.55;;;5.42;82.42
74790;BME280;63318;52.406;13.416;2023-04-08T00:35:34;101683.48;;;5.42;82.44
74790;BME280;63318;52.406;13.416;2023-04-08T00:38:03;101683.26;;;5.42;82.63
74790;BME280;63318;52.406;13.416;2023-04-08T00:40:31;101683.23;;;5.42;82.53
74790;BME280;63318;52.406;13.416;2023-04-08T00:42:59;101687.21;;;5.42;82.39
74790;BME280;63318;52.406;13.416;2023-04-08T00:45:28;101689.04;;;5.43;82.38
74790;BME280;63318;52.406;13.416;2023-04-08T00:47:57;101687.66;;;5.42;82.65
74790;BME280;63318;52.406;13.416;2023-04-08T00:50:25;101688.43;;;5.42;82.84
74790;BME280;63318;52.406;13.416;2023-04-08T00:52:54;101687.08;;;5.42;82.76
74790;BME280;63318;52.406;13.416;2023-04-08T00:55:22;101685.01;;;5.43;83.04
74790;BME280;63318;52.406;13.416;2023-04-08T00:57:51;101681.82;;;5.43;82.70
74790;BME280;63318;52.406;13.416;2023-04-08T01:00:21;101681.79;;;5.43;82.91
74790;BME280;63318;52.406;13.416;2023-04-08T01:02:54;101680.98;;;5.44;83.03
74790;BME280;63318;52.406;13.416;2023-04-08T01:05:29;101680.33;;;5.44;82.93
74790;BME280;63318;52.406;13.416;2023-04-08T01:08:04;101681.02;;;5.45;83.08
74790;BME280;63318;52.406;13.416;2023-04-08T01:10:34;101684.83;;;5.45;82.87
74790;BME280;63318;52.406;13.416;2023-04-08T01:13:06;101681.34;;;5.45;82.95
74790;BME280;63318;52.406;13.416;2023-04-08T01:15:37;101684.51;;;5.46;82.95
74790;BME280;63318;52.406;13.416;2023-04-08T01:18:09;101689.42;;;5.46;82.88
74790;BME280;63318;52.406;13.416;2023-04-08T01:20:41;101692.23;;;5.46;83.01
74790;BME280;63318;52.406;13.416;2023-04-08T01:23:17;101689.05;;;5.46;83.08
74790;BME280;63318;52.406;13.416;2023-04-08T01:25:50;101695.07;;;5.46;82.96
74790;BME280;63318;52.406;13.416;2023-04-08T01:28:20;101700.92;;;5.47;83.32
74790;BME280;63318;52.406;13.416;2023-04-08T01:30:50;101700.09;;;5.48;83.43
74790;BME280;63318;52.406;13.416;2023-04-08T01:33:20;101696.38;;;5.48;83.16
74790;BME280;63318;52.406;13.416;2023-04-08T01:35:50;101692.83;;;5.48;83.33
74790;BME280;63318;52.406;13.416;2023-04-08T01:38:21;101695.66;;;5.49;83.16
74790;BME280;63318;52.406;13.416;2023-04-08T01:40:52;101700.74;;;5.49;83.23
74790;BME280;63318;52.406;13.416;2023-04-08T01:43:22;101695.23;;;5.49;82.97
74790;BME280;63318;52.406;13.416;2023-04-08T01:45:52;101699.87;;;5.49;83.11
74790;BME280;63318;52.406;13.416;2023-04-08T01:48:22;101701.81;;;5.50;83.10
74790;BME280;63318;52.406;13.416;2023-04-08T01:50:52;101702.95;;;5.49;83.19
74790;BME280;63318;52.406;13.416;2023-04-08T01:53:22;101709.40;;;5.49;83.16
74790;BME280;63318;52.406;13.416;2023-04-08T01:55:54;101706.46;;;5.49;83.06
74790;BME280;63318;52.406;13.416;2023-04-08T01:58:25;101708.74;;;5.48;83.00
74790;BME280;63318;52.406;13.416;2023-04-08T02:00:58;101707.48;;;5.48;82.91
74790;BME280;63318;52.406;13.416;2023-04-08T02:03:29;101705.66;;;5.48;83.06
74790;BME280;63318;52.406;13.416;2023-04-08T02:05:58;101707.38;;;5.48;83.00
74790;BME280;63318;52.406;13.416;2023-04-08T02:08:27;101703.55;;;5.48;83.01
74790;BME280;63318;52.406;13.416;2023-04-08T02:10:55;101698.93;;;5.48;83.03
74790;BME280;63318;52.406;13.416;2023-04-08T02:13:26;101699.77;;;5.47;83.22
74790;BME280;63318;52.406;13.416;2023-04-08T02:16:00;101704.15;;;5.47;83.70
74790;BME280;63318;52.406;13.416;2023-04-08T02:18:32;101712.91;;;5.48;83.42
74790;BME280;63318;52.406;13.416;2023-04-08T02:21:07;101712.98;;;5.47;83.38
74790;BME280;63318;52.406;13.416;2023-04-08T02:23:39;101713.30;;;5.47;83.24
74790;BME280;63318;52.406;13.416;2023-04-08T02:26:13;101716.02;;;5.47;83.31
74790;BME280;63318;52.406;13.416;2023-04-08T02:28:44;101717.54;;;5.46;83.55
74790;BME280;63318;52.406;13.416;2023-04-08T02:31:15;101720.29;;;5.46;83.10
74790;BME280;63318;52.406;13.416;2023-04-08T02:33:46;101724.03;;;5.46;83.27
74790;BME280;63318;52.406;13.416;2023-04-08T02:36:16;101724.30;;;5.45;83.23
74790;BME280;63318;52.406;13.416;2023-04-08T02:38:49;101728.70;;;5.45;83.35
74790;BME280;63318;52.406;13.416;2023-04-08T02:41:17;101725.77;;;5.45;83.47
74790;BME280;63318;52.406;13.416;2023-04-08T02:43:46;101732.84;;;5.46;83.38
74790;BME280;63318;52.406;13.416;2023-04-08T02:46:14;101735.48;;;5.45;83.07
74790;BME280;63318;52.406;13.416;2023-04-08T02:48:43;101735.35;;;5.45;83.38
74790;BME280;63318;52.406;13.416;2023-04-08T02:51:11;101738.15;;;5.45;83.48
74790;BME280;63318;52.406;13.416;2023-04-08T02:53:40;101740.69;;;5.45;83.62
74790;BME280;63318;52.406;13.416;2023-04-08T02:56:11;101742.69;;;5.45;83.58
74790;BME280;63318;52.406;13.416;2023-04-08T02:58:39;101740.10;;;5.45;83.45
74790;BME280;63318;52.406;13.416;2023-04-08T03:01:07;101739.04;;;5.45;83.53
74790;BME280;63318;52.406;13.416;2023-04-08T03:03:36;101737.60;;;5.45;83.32
74790;BME280;63318;52.406;13.416;2023-04-08T03:06:05;101741.77;;;5.45;83.49
74790;BME280;63318;52.406;13.416;2023-04-08T03:08:33;101744.46;;;5.45;83.61
74790;BME280;63318;52.406;13.416;2023-04-08T03:11:02;101744.80;;;5.45;83.85
74790;BME280;63318;52.406;13.416;2023-04-08T03:13:30;101750.73;;;5.46;83.72
74790;BME280;63318;52.406;13.416;2023-04-08T03:15:58;101749.62;;;5.47;83.49
74790;BME280;63318;52.406;13.416;2023-04-08T03:18:27;101751.98;;;5.47;83.51
74790;BME280;63318;52.406;13.416;2023-04-08T03:20:55;101751.45;;;5.47;83.58
74790;BME280;63318;52.406;13.416;2023-04-08T03:23:24;101755.23;;;5.47;83.84
74790;BME280;63318;52.406;13.416;2023-04-08T03:25:53;101759.55;;;5.48;83.82
74790;BME280;63318;52.406;13.416;2023-04-08T03:28:22;101757.60;;;5.47;83.93
74790;BME280;63318;52.406;13.416;2023-04-08T03:30:51;101762.25;;;5.48;84.00
74790;BME280;63318;52.406;13.416;2023-04-08T03:33:19;101766.30;;;5.48;83.98
74790;BME280;63318;52.406;13.416;2023-04-08T03:35:48;101767.16;;;5.48;83.93
74790;BME280;63318;52.406;13.416;2023-04-08T03:38:17;101761.71;;;5.48;83.79
74790;BME280;63318;52.406;13.416;2023-04-08T03:40:45;101766.02;;;5.49;83.87
74790;BME280;63318;52.406;13.416;2023-04-08T03:43:14;101762.77;;;5.48;84.14
74790;BME280;63318;52.406;13.416;2023-04-08T03:45:42;101767.67;;;5.49;84.32
74790;BME280;63318;52.406;13.416;2023-04-08T03:48:11;101769.11;;;5.49;84.02
74790;BME280;63318;52.406;13.416;2023-04-08T03:50:39;101771.88;;;5.49;84.09
74790;BME280;63318;52.406;13.416;2023-04-08T03:53:08;101771.67;;;5.49;84.09
74790;BME280;63318;52.406;13.416;2023-04-08T03:55:36;101776.25;;;5.49;83.83
74790;BME280;63318;52.406;13.416;2023-04-08T03:58:05;101778.76;;;5.50;84.01
74790;BME280;63318;52.406;13.416;2023-04-08T04:00:33;101779.69;;;5.50;84.05
74790;BME280;63318;52.406;13.416;2023-04-08T04:03:02;101781.20;;;5.49;84.09
74790;BME280;63318;52.406;13.416;2023-04-08T04:05:30;101784.90;;;5.49;84.28
74790;BME280;63318;52.406;13.416;2023-04-08T04:07:59;101786.93;;;5.49;84.15
74790;BME280;63318;52.406;13.416;2023-04-08T04:10:27;101786.12;;;5.48;84.16
74790;BME280;63318;52.406;13.416;2023-04-08T04:12:55;101786.55;;;5.48;84.18
74790;BME280;63318;52.406;13.416;2023-04-08T04:15:24;101791.67;;;5.48;84.17
74790;BME280;63318;52.406;13.416;2023-04-08T04:17:52;101793.00;;;5.48;84.34
74790;BME280;63318;52.406;13.416;2023-04-08T04:20:21;101788.63;;;5.47;84.20
74790;BME280;63318;52.406;13.416;2023-04-08T04:22:52;101794.92;;;5.47;84.33
74790;BME280;63318;52.406;13.416;2023-04-08T04:25:21;101792.48;;;5.47;84.11
74790;BME280;63318;52.406;13.416;2023-04-08T04:27:50;101799.87;;;5.47;84.10
74790;BME280;63318;52.406;13.416;2023-04-08T04:30:19;101801.86;;;5.47;84.35
74790;BME280;63318;52.406;13.416;2023-04-08T04:32:48;101807.63;;;5.47;84.45
74790;BME280;63318;52.406;13.416;2023-04-08T04:35:16;101810.52;;;5.47;84.44
74790;BME280;63318;52.406;13.416;2023-04-08T04:37:45;101808.77;;;5.47;84.38
74790;BME280;63318;52.406;13.416;2023-04-08T04:40:14;101812.72;;;5.47;84.30
74790;BME280;63318;52.406;13.416;2023-04-08T04:42:43;101819.83;;;5.48;84.29
74790;BME280;63318;52.406;13.416;2023-04-08T04:45:14;101823.35;;;5.48;84.28
74790;BME280;63318;52.406;13.416;2023-04-08T04:47:44;101821.40;;;5.47;84.37
74790;BME280;63318;52.406;13.416;2023-04-08T04:50:13;101817.97;;;5.47;84.48
74790;BME280;63318;52.406;13.416;2023-04-08T04:52:42;101825.48;;;5.47;84.56
74790;BME280;63318;52.406;13.416;2023-04-08T04:55:13;101824.75;;;5.47;84.50
74790;BME280;63318;52.406;13.416;2023-04-08T04:57:42;101826.91;;;5.47;84.42
74790;BME280;63318;52.406;13.416;2023-04-08T05:00:12;101830.13;;;5.46;84.40
74790;BME280;63318;52.406;13.416;2023-04-08T05:02:41;101831.61;;;5.46;84.36
74790;BME280;63318;52.406;13.416;2023-04-08T05:05:10;101831.61;;;5.46;84.43
74790;BME280;63318;52.406;13.416;2023-04-08T05:07:40;101836.11;;;5.45;84.53
74790;BME280;63318;52.406;13.416;2023-04-08T05:10:09;101835.85;;;5.46;84.68
74790;BME280;63318;52.406;13.416;2023-04-08T05:12:39;101844.38;;;5.47;84.69
74790;BME280;63318;52.406;13.416;2023-04-08T05:15:08;101840.61;;;5.48;84.61
74790;BME280;63318;52.406;13.416;2023-04-08T05:17:37;101839.75;;;5.48;84.55
74790;BME280;63318;52.406;13.416;2023-04-08T05:20:07;101842.84;;;5.49;84.59
74790;BME280;63318;52.406;13.416;2023-04-08T05:22:36;101851.92;;;5.49;84.74
74790;BME280;63318;52.406;13.416;2023-04-08T05:25:06;101851.96;;;5.50;84.82
74790;BME280;63318;52.406;13.416;2023-04-08T05:27:35;101856.75;;;5.52;84.93
74790;BME280;63318;52.406;13.416;2023-04-08T05:30:07;101856.29;;;5.52;84.98
74790;BME280;63318;52.406;13.416;2023-04-08T05:32:35;101861.12;;;5.53;84.75
74790;BME280;63318;52.406;13.416;2023-04-08T05:35:04;101864.73;;;5.54;84.59
74790;BME280;63318;52.406;13.416;2023-04-08T05:37:33;101867.14;;;5.55;84.71
74790;BME280;63318;52.406;13.416;2023-04-08T05:40:01;101869.03;;;5.56;84.97
74790;BME280;63318;52.406;13.416;2023-04-08T05:42:29;101869.22;;;5.57;84.96
74790;BME280;63318;52.406;13.416;2023-04-08T05:44:58;101871.23;;;5.58;84.68
74790;BME280;63318;52.406;13.416;2023-04-08T05:47:26;101876.38;;;5.60;84.47
74790;BME280;63318;52.406;13.416;2023-04-08T05:49:55;101880.95;;;5.61;84.62
74790;BME280;63318;52.406;13.416;2023-04-08T05:52:23;101887.95;;;5.63;84.86
74790;BME280;63318;52.406;13.416;2023-04-08T05:54:51;101888.61;;;5.66;84.82
74790;BME280;63318;52.406;13.416;2023-04-08T05:57:20;101892.98;;;5.67;84.57
74790;BME280;63318;52.406;13.416;2023-04-08T05:59:50;101889.34;;;5.69;84.83
74790;BME280;63318;52.406;13.416;2023-04-08T06:02:19;101889.05;;;5.70;84.97
74790;BME280;63318;52.406;13.416;2023-04-08T06:04:49;101884.49;;;5.73;84.63
74790;BME280;63318;52.406;13.416;2023-04-08T06:07:18;101894.64;;;5.75;84.68
74790;BME280;63318;52.406;13.416;2023-04-08T06:09:47;101894.11;;;5.77;84.82
74790;BME280;63318;52.406;13.416;2023-04-08T06:12:16;101891.31;;;5.80;84.87
74790;BME280;63318;52.406;13.416;2023-04-08T06:14:45;101898.05;;;5.83;85.04
74790;BME280;63318;52.406;13.416;2023-04-08T06:17:14;101901.52;;;5.86;84.72
74790;BME280;63318;52.406;13.416;2023-04-08T06:19:42;101901.34;;;5.89;85.01
74790;BME280;63318;52.406;13.416;2023-04-08T06:22:11;101905.48;;;5.92;85.10
74790;BME280;63318;52.406;13.416;2023-04-08T06:24:40;101910.84;;;5.94;85.05
74790;BME280;63318;52.406;13.416;2023-04-08T06:27:09;101912.31;;;5.97;84.99
74790;BME280;63318;52.406;13.416;2023-04-08T06:29:37;101915.02;;;6.00;85.02
74790;BME280;63318;52.406;13.416;2023-04-08T06:32:06;101914.24;;;6.02;84.94
74790;BME280;63318;52.406;13.416;2023-04-08T06:34:35;101915.73;;;6.06;84.97
74790;BME280;63318;52.406;13.416;2023-04-08T06:37:05;101920.02;;;6.10;85.00
74790;BME280;63318;52.406;13.416;2023-04-08T06:39:34;101923.48;;;6.14;85.24
74790;BME280;63318;52.406;13.416;2023-04-08T06:42:05;101929.58;;;6.17;85.10
74790;BME280;63318;52.406;13.416;2023-04-08T06:44:33;101932.58;;;6.21;85.05
74790;BME280;63318;52.406;13.416;2023-04-08T06:47:02;101937.24;;;6.26;85.02
74790;BME280;63318;52.406;13.416;2023-04-08T06:49:31;101938.17;;;6.29;85.15
74790;BME280;63318;52.406;13.416;2023-04-08T06:51:59;101943.71;;;6.33;85.16
74790;BME280;63318;52.406;13.416;2023-04-08T06:54:28;101942.67;;;6.38;84.99
74790;BME280;63318;52.406;13.416;2023-04-08T06:56:57;101948.61;;;6.44;85.02
74790;BME280;63318;52.406;13.416;2023-04-08T06:59:26;101953.97;;;6.50;84.90
74790;BME280;63318;52.406;13.416;2023-04-08T07:01:55;101958.95;;;6.56;84.94
74790;BME280;63318;52.406;13.416;2023-04-08T07:04:23;101957.75;;;6.61;84.89
74790;BME280;63318;52.406;13.416;2023-04-08T07:06:53;101960.95;;;6.68;84.93
74790;BME280;63318;52.406;13.416;2023-04-08T07:09:23;101964.10;;;6.77;84.82
74790;BME280;63318;52.406;13.416;2023-04-08T07:11:52;101964.95;;;6.85;84.84
74790;BME280;63318;52.406;13.416;2023-04-08T07:14:20;101969.72;;;6.92;84.91
74790;BME280;63318;52.406;13.416;2023-04-08T07:16:49;101969.86;;;6.98;84.75
74790;BME280;63318;52.406;13.416;2023-04-08T07:19:17;101968.34;;;7.03;84.57
74790;BME280;63318;52.406;13.416;2023-04-08T07:21:46;101969.80;;;7.09;84.57
74790;BME280;63318;52.406;13.416;2023-04-08T07:24:15;101976.20;;;7.14;84.60
74790;BME280;63318;52.406;13.416;2023-04-08T07:26:43;101978.10;;;7.20;84.62
74790;BME280;63318;52.406;13.416;2023-04-08T07:29:12;101974.41;;;7.26;84.29
74790;BME280;63318;52.406;13.416;2023-04-08T07:31:41;101973.91;;;7.32;84.56
74790;BME280;63318;52.406;13.416;2023-04-08T07:34:11;101979.09;;;7.38;84.44
74790;BME280;63318;52.406;13.416;2023-04-08T07:36:39;101979.80;;;7.42;84.21
74790;BME280;63318;52.406;13.416;2023-04-08T07:39:08;101980.91;;;7.47;84.03
74790;BME280;63318;52.406;13.416;2023-04-08T07:41:37;101987.88;;;7.52;83.99
74790;BME280;63318;52.406;13.416;2023-04-08T07:44:07;101990.70;;;7.56;84.14
74790;BME280;63318;52.406;13.416;2023-04-08T07:46:38;101994.10;;;7.62;84.10
74790;BME280;63318;52.406;13.416;2023-04-08T07:49:07;101996.88;;;7.67;84.19
74790;BME280;63318;52.406;13.416;2023-04-08T07:51:37;101990.23;;;7.72;84.17
74790;BME280;63318;52.406;13.416;2023-04-08T07:54:05;101995.14;;;7.77;83.88
74790;BME280;63318;52.406;13.416;2023-04-08T07:56:34;101994.40;;;7.79;83.55
74790;BME280;63318;52.406;13.416;2023-04-08T07:59:02;101992.63;;;7.82;83.55
74790;BME280;63318;52.406;13.416;2023-04-08T08:01:32;101991.02;;;7.86;83.77
74790;BME280;63318;52.406;13.416;2023-04-08T08:04:01;101996.35;;;7.89;83.70
74790;BME280;63318;52.406;13.416;2023-04-08T08:06:29;101998.54;;;7.93;83.50
74790;BME280;63318;52.406;13.416;2023-04-08T08:08:58;102002.38;;;7.96;83.44
74790;BME280;63318;52.406;13.416;2023-04-08T08:11:27;102002.58;;;7.97;83.24
74790;BME280;63318;52.406;13.416;2023-04-08T08:13:56;102004.41;;;7.98;83.45
74790;BME280;63318;52.406;13.416;2023-04-08T08:16:29;102005.84;;;8.00;83.38
74790;BME280;63318;52.406;13.416;2023-04-08T08:18:59;102007.21;;;8.02;83.32
74790;BME280;63318;52.406;13.416;2023-04-08T08:21:27;102005.12;;;8.04;83.07
74790;BME280;63318;52.406;13.416;2023-04-08T08:23:57;102003.48;;;8.06;82.99
74790;BME280;63318;52.406;13.416;2023-04-08T08:26:26;102009.98;;;8.08;82.90
74790;BME280;63318;52.406;13.416;2023-04-08T08:28:54;102012.73;;;8.09;82.95
74790;BME280;63318;52.406;13.416;2023-04-08T08:31:23;102015.07;;;8.10;82.79
74790;BME280;63318;52.406;13.416;2023-04-08T08:33:51;102019.67;;;8.10;82.75
74790;BME280;63318;52.406;13.416;2023-04-08T08:36:19;102015.94;;;8.09;82.56
74790;BME280;63318;52.406;13.416;2023-04-08T08:38:48;102022.83;;;8.09;82.50
74790;BME280;63318;52.406;13.416;2023-04-08T08:41:16;102019.95;;;8.10;82.47
74790;BME280;63318;52.406;13.416;2023-04-08T08:43:45;102019.72;;;8.13;82.66
74790;BME280;63318;52.406;13.416;2023-04-08T08:46:16;102024.81;;;8.16;82.47
74790;BME280;63318;52.406;13.416;2023-04-08T08:48:46;102026.78;;;8.18;82.33
74790;BME280;63318;52.406;13.416;2023-04-08T08:51:15;102025.72;;;8.19;82.09
74790;BME280;63318;52.406;13.416;2023-04-08T08:53:43;102030.95;;;8.19;82.10
74790;BME280;63318;52.406;13.416;2023-04-08T08:56:11;102035.57;;;8.22;82.15
74790;BME280;63318;52.406;13.416;2023-04-08T08:58:41;102040.91;;;8.24;82.23
74790;BME280;63318;52.406;13.416;2023-04-08T09:01:30;102044.84;;;8.25;82.12
74790;BME280;63318;52.406;13.416;2023-04-08T09:04:13;102044.89;;;8.26;82.06
74790;BME280;63318;52.406;13.416;2023-04-08T09:06:43;102049.53;;;8.29;82.15
74790;BME280;63318;52.406;13.416;2023-04-08T09:09:12;102046.95;;;8.33;81.87
74790;BME280;63318;52.406;13.416;2023-04-08T09:11:42;102048.77;;;8.38;82.05
74790;BME280;63318;52.406;13.416;2023-04-08T09:14:27;102049.05;;;8.46;81.83
74790;BME280;63318;52.406;13.416;2023-04-08T09:16:55;102056.97;;;8.54;82.01
74790;BME280;63318;52.406;13.416;2023-04-08T09:19:24;102061.62;;;8.62;81.59
74790;BME280;63318;52.406;13.416;2023-04-08T09:22:09;102066.38;;;8.70;81.48
74790;BME280;63318;52.406;13.416;2023-04-08T09:24:38;102071.83;;;8.79;81.48
74790;BME280;63318;52.406;13.416;2023-04-08T09:27:07;102071.45;;;8.86;81.50
74790;BME280;63318;52.406;13.416;2023-04-08T09:29:35;102071.41;;;8.92;81.33
74790;BME280;63318;52.406;13.416;2023-04-08T09:32:03;102070.55;;;8.98;81.00
74790;BME280;63318;52.406;13.416;2023-04-08T09:34:32;102069.48;;;9.04;81.09
74790;BME280;63318;52.406;13.416;2023-04-08T09:37:01;102071.85;;;9.10;80.81
74790;BME280;63318;52.406;13.416;2023-04-08T09:39:31;102074.61;;;9.18;80.71
74790;BME280;63318;52.406;13.416;2023-04-08T09:42:01;102074.44;;;9.25;80.66
74790;BME280;63318;52.406;13.416;2023-04-08T09:44:35;102077.10;;;9.30;80.38
74790;BME280;63318;52.406;13.416;2023-04-08T09:47:11;102076.54;;;9.34;80.21
74790;BME280;63318;52.406;13.416;2023-04-08T09:49:50;102081.89;;;9.39;80.23
74790;BME280;63318;52.406;13.416;2023-04-08T09:52:23;102083.26;;;9.44;80.24
74790;BME280;63318;52.406;13.416;2023-04-08T09:54:53;102079.62;;;9.47;79.95
74790;BME280;63318;52.406;13.416;2023-04-08T09:57:35;102081.59;;;9.50;79.59
74790;BME280;63318;52.406;13.416;2023-04-08T10:00:09;102082.09;;;9.55;79.57
74790;BME280;63318;52.406;13.416;2023-04-08T10:02:42;102082.16;;;9.62;79.24
74790;BME280;63318;52.406;13.416;2023-04-08T10:05:13;102082.00;;;9.66;78.86
74790;BME280;63318;52.406;13.416;2023-04-08T10:07:43;102081.96;;;9.70;78.58
74790;BME280;63318;52.406;13.416;2023-04-08T10:10:12;102080.79;;;9.74;78.48
74790;BME280;63318;52.406;13.416;2023-04-08T10:12:41;102081.94;;;9.80;78.52
74790;BME280;63318;52.406;13.416;2023-04-08T10:15:29;102083.46;;;9.86;78.14
74790;BME280;63318;52.406;13.416;2023-04-08T10:18:30;102086.18;;;9.93;77.77
74790;BME280;63318;52.406;13.416;2023-04-08T10:20:59;102084.16;;;9.99;77.81
74790;BME280;63318;52.406;13.416;2023-04-08T10:23:53;102083.05;;;10.02;77.78
74790;BME280;63318;52.406;13.416;2023-04-08T10:26:39;102085.05;;;10.05;77.38
74790;BME280;63318;52.406;13.416;2023-04-08T10:32:28;102086.65;;;10.09;76.98
74790;BME280;63318;52.406;13.416;2023-04-08T10:34:56;102086.08;;;10.15;76.96
74790;BME280;63318;52.406;13.416;2023-04-08T10:37:24;102082.17;;;10.32;76.89
74790;BME280;63318;52.406;13.416;2023-04-08T10:39:54;102083.61;;;10.55;76.74
74790;BME280;63318;52.406;13.416;2023-04-08T10:42:27;102081.56;;;10.74;76.33
74790;BME280;63318;52.406;13.416;2023-04-08T10:45:00;102085.20;;;10.87;75.48
74790;BME280;63318;52.406;13.416;2023-04-08T10:47:29;102085.37;;;10.91;75.46
74790;BME280;63318;52.406;13.416;2023-04-08T10:49:58;102082.42;;;10.96;74.83
74790;BME280;63318;52.406;13.416;2023-04-08T10:52:26;102086.02;;;10.99;74.57
74790;BME280;63318;52.406;13.416;2023-04-08T10:54:54;102086.11;;;11.02;74.75
74790;BME280;63318;52.406;13.416;2023-04-08T10:57:26;102089.60;;;11.04;74.71
74790;BME280;63318;52.406;13.416;2023-04-08T10:59:54;102088.86;;;11.08;74.38
74790;BME280;63318;52.406;13.416;2023-04-08T11:02:22;102088.23;;;11.10;74.43
74790;BME280;63318;52.406;13.416;2023-04-08T11:04:59;102084.05;;;11.12;74.19
74790;BME280;63318;52.406;13.416;2023-04-08T11:07:27;102080.33;;;11.20;74.10
74790;BME280;63318;52.406;13.416;2023-04-08T11:09:55;102080.19;;;11.29;73.99
74790;BME280;63318;52.406;13.416;2023-04-08T11:12:26;102082.11;;;11.33;73.19
74790;BME280;63318;52.406;13.416;2023-04-08T11:14:54;102085.71;;;11.35;73.31
74790;BME280;63318;52.406;13.416;2023-04-08T11:17:23;102086.31;;;11.39;73.27
74790;BME280;63318;52.406;13.416;2023-04-08T11:19:52;102087.80;;;11.43;72.83
74790;BME280;63318;52.406;13.416;2023-04-08T11:22:21;102087.50;;;11.43;72.52
74790;BME280;63318;52.406;13.416;2023-04-08T11:24:50;102090.80;;;11.47;72.67
74790;BME280;63318;52.406;13.416;2023-04-08T11:27:19;102090.52;;;11.52;72.66
74790;BME280;63318;52.406;13.416;2023-04-08T11:29:48;102090.28;;;11.57;72.18
74790;BME280;63318;52.406;13.416;2023-04-08T11:32:17;102092.81;;;11.61;71.89
74790;BME280;63318;52.406;13.416;2023-04-08T11:34:47;102094.73;;;11.65;71.70
74790;BME280;63318;52.406;13.416;2023-04-08T11:37:16;102094.29;;;11.69;71.39
74790;BME280;63318;52.406;13.416;2023-04-08T11:39:45;102092.53;;;11.73;71.17
74790;BME280;63318;52.406;13.416;2023-04-08T11:42:27;102090.95;;;11.80;71.09
74790;BME280;63318;52.406;13.416;2023-04-08T11:44:56;102092.34;;;12.08;71.13
74790;BME280;63318;52.406;13.416;2023-04-08T11:47:31;102089.65;;;12.45;70.59
74790;BME280;63318;52.406;13.416;2023-04-08T11:49:59;102083.73;;;12.77;69.92
74790;BME280;63318;52.406;13.416;2023-04-08T11:52:42;102083.73;;;13.03;69.11
74790;BME280;63318;52.406;13.416;2023-04-08T11:55:20;102083.16;;;13.25;67.99
74790;BME280;63318;52.406;13.416;2023-04-08T11:57:50;102074.48;;;13.40;67.08
74790;BME280;63318;52.406;13.416;2023-04-08T12:00:19;102074.70;;;13.44;65.44
74790;BME280;63318;52.406;13.416;2023-04-08T12:02:48;102072.45;;;13.46;65.49
74790;BME280;63318;52.406;13.416;2023-04-08T12:05:18;102075.50;;;13.50;65.53
74790;BME280;63318;52.406;13.416;2023-04-08T12:07:47;102076.88;;;13.50;64.81
74790;BME280;63318;52.406;13.416;2023-04-08T12:10:15;102081.41;;;13.41;64.56
74790;BME280;63318;52.406;13.416;2023-04-08T12:12:44;102084.79;;;13.33;64.64
74790;BME280;63318;52.406;13.416;2023-04-08T12:15:12;102080.92;;;13.29;65.56
74790;BME280;63318;52.406;13.416;2023-04-08T12:17:41;102077.70;;;13.34;65.60
74790;BME280;63318;52.406;13.416;2023-04-08T12:20:11;102082.45;;;13.48;65.62
74790;BME280;63318;52.406;13.416;2023-04-08T12:22:39;102085.96;;;13.52;65.56
74790;BME280;63318;52.406;13.416;2023-04-08T12:25:09;102084.80;;;13.51;65.10
74790;BME280;63318;52.406;13.416;2023-04-08T12:27:37;102083.95;;;13.52;64.38
74790;BME280;63318;52.406;13.416;2023-04-08T12:30:07;102083.92;;;13.64;64.80
74790;BME280;63318;52.406;13.416;2023-04-08T12:32:36;102086.42;;;13.81;64.41
74790;BME280;63318;52.406;13.416;2023-04-08T12:35:04;102083.14;;;13.99;64.10
74790;BME280;63318;52.406;13.416;2023-04-08T12:37:33;102081.20;;;14.13;63.19
74790;BME280;63318;52.406;13.416;2023-04-08T12:40:02;102077.95;;;14.28;62.78
74790;BME280;63318;52.406;13.416;2023-04-08T12:42:30;102075.37;;;14.46;61.98
74790;BME280;63318;52.406;13.416;2023-04-08T12:44:59;102071.23;;;14.66;61.08
74790;BME280;63318;52.406;13.416;2023-04-08T12:47:28;102074.98;;;14.84;60.32
74790;BME280;63318;52.406;13.416;2023-04-08T12:50:04;102069.13;;;14.96;60.18
74790;BME280;63318;52.406;13.416;2023-04-08T12:52:42;102068.16;;;15.15;59.69
74790;BME280;63318;52.406;13.416;2023-04-08T12:55:11;102067.45;;;15.26;58.44
74790;BME280;63318;52.406;13.416;2023-04-08T12:57:57;102071.64;;;15.28;57.70
74790;BME280;63318;52.406;13.416;2023-04-08T13:00:31;102070.33;;;15.13;58.10
74790;BME280;63318;52.406;13.416;2023-04-08T13:02:59;102072.64;;;14.94;57.14
74790;BME280;63318;52.406;13.416;2023-04-08T13:05:29;102068.34;;;14.78;57.77